Terminal Aerodrome Forecast
Issued by NWS

Home | Current Version | Previous Version | Text Only | Print | Product List | Glossary On
Versions: 1 2 3 4 5 6 7 8 9 10 11 12 13 14 15 16
888
FTUS43 KDLH 211345 AAA
TAFHYR
TAF AMD
KHYR 211345Z 2114/2212 32008G21KT P6SM OVC035
     FM211700 32015G25KT P6SM BKN025
     FM212300 31007KT P6SM BKN030
     FM220200 30004KT P6SM SCT030
     FM220900 33004KT P6SM FEW250=

USA.gov is the U.S. government's official web portal to all federal, state and local government web resources and services.